createdAt,value
2018-09-03T00:00:53.343Z,4.30
2018-09-03T00:03:20.874Z,4.33
2018-09-03T00:05:48.353Z,4.37
2018-09-03T00:08:15.815Z,3.23
2018-09-03T00:10:43.352Z,5.00
2018-09-03T00:13:11.176Z,4.53
2018-09-03T00:15:38.778Z,3.53
2018-09-03T00:18:06.280Z,3.43
2018-09-03T00:20:33.754Z,3.10
2018-09-03T00:23:01.143Z,4.47
2018-09-03T00:25:28.539Z,5.33
2018-09-03T00:27:56.015Z,4.47
2018-09-03T00:30:23.459Z,3.43
2018-09-03T00:32:56.622Z,3.07
2018-09-03T00:35:29.829Z,3.90
2018-09-03T00:38:03.236Z,4.77
2018-09-03T00:40:36.284Z,3.57
2018-09-03T00:43:09.399Z,4.60
2018-09-03T00:45:42.562Z,5.50
2018-09-03T00:48:09.935Z,4.90
2018-09-03T00:50:37.421Z,4.37
2018-09-03T00:53:04.920Z,3.63
2018-09-03T00:55:32.896Z,4.57
2018-09-03T00:58:00.472Z,3.30
2018-09-03T01:00:27.860Z,4.37
2018-09-03T01:02:55.424Z,3.23
2018-09-03T01:05:22.861Z,3.97
2018-09-03T01:07:50.577Z,3.17
2018-09-03T01:10:18.114Z,4.40
2018-09-03T01:12:45.601Z,3.90
2018-09-03T01:15:13.091Z,3.90
2018-09-03T01:17:40.556Z,4.47
2018-09-03T01:20:08.036Z,3.90
2018-09-03T01:22:35.439Z,3.20
2018-09-03T01:25:03.041Z,4.53
2018-09-03T01:27:30.543Z,4.97
2018-09-03T01:29:58.094Z,4.70
2018-09-03T01:32:25.603Z,4.53
2018-09-03T01:34:52.983Z,5.07
2018-09-03T01:37:20.478Z,5.70
2018-09-03T01:39:48.452Z,5.17
2018-09-03T01:42:15.990Z,5.87
2018-09-03T01:44:43.493Z,4.13
2018-09-03T01:47:11.097Z,4.53
2018-09-03T01:49:38.563Z,3.40
2018-09-03T01:52:06.105Z,4.50
2018-09-03T01:54:33.590Z,4.53
2018-09-03T01:57:01.224Z,4.13
2018-09-03T01:59:28.576Z,4.77
2018-09-03T02:01:56.112Z,4.33
2018-09-03T02:04:23.625Z,4.83
2018-09-03T02:06:51.527Z,4.67
2018-09-03T02:09:19.004Z,5.10
2018-09-03T02:11:46.488Z,4.00
2018-09-03T02:14:13.974Z,5.40
2018-09-03T02:16:41.355Z,4.27
2018-09-03T02:19:08.859Z,4.23
2018-09-03T02:21:36.595Z,4.47
2018-09-03T02:24:04.191Z,5.20
2018-09-03T02:26:31.637Z,5.20
2018-09-03T02:28:59.061Z,3.97
2018-09-03T02:31:26.628Z,5.00
2018-09-03T02:33:54.086Z,3.90
2018-09-03T02:36:21.504Z,5.73
2018-09-03T02:38:48.931Z,4.13
2018-09-03T02:41:16.440Z,5.43
2018-09-03T02:43:43.896Z,6.17
2018-09-03T02:46:11.355Z,4.20
2018-09-03T02:48:38.739Z,6.27
2018-09-03T02:51:06.138Z,5.90
2018-09-03T02:53:33.731Z,5.93
2018-09-03T02:56:01.241Z,4.97
2018-09-03T02:58:28.655Z,5.40
2018-09-03T03:00:56.104Z,5.30
2018-09-03T03:03:23.723Z,5.83
2018-09-03T03:05:51.237Z,5.93
2018-09-03T03:08:18.666Z,6.03
2018-09-03T03:10:46.486Z,6.00
2018-09-03T03:13:13.932Z,5.27
2018-09-03T03:15:41.387Z,5.80
2018-09-03T03:18:08.772Z,6.17
2018-09-03T03:20:36.305Z,5.33
2018-09-03T03:23:03.812Z,5.77
2018-09-03T03:25:31.317Z,4.63
2018-09-03T03:27:58.859Z,6.27
2018-09-03T03:30:26.350Z,6.47
2018-09-03T03:32:53.852Z,5.87
2018-09-03T03:35:21.265Z,5.50
2018-09-03T03:37:49.047Z,5.70
2018-09-03T03:40:17.553Z,6.23
2018-09-03T03:42:44.972Z,5.40
2018-09-03T03:45:12.440Z,6.50
2018-09-03T03:47:40.280Z,5.10
2018-09-03T03:50:08.078Z,5.63
2018-09-03T03:52:35.603Z,5.60
2018-09-03T03:55:03.642Z,5.07
2018-09-03T03:57:31.093Z,6.23
2018-09-03T03:59:58.744Z,5.47
2018-09-03T04:02:26.337Z,6.77
2018-09-03T04:04:53.857Z,6.03
2018-09-03T04:07:21.337Z,5.00
2018-09-03T04:09:48.872Z,5.10
2018-09-03T04:12:16.414Z,5.33
2018-09-03T04:14:43.883Z,6.00
2018-09-03T04:17:11.372Z,5.70
2018-09-03T04:19:38.784Z,5.80
2018-09-03T04:22:06.312Z,4.53
2018-09-03T04:24:33.873Z,5.97
2018-09-03T04:27:01.327Z,7.20
2018-09-03T04:29:28.729Z,8.77
2018-09-03T04:31:56.119Z,5.73
2018-09-03T04:34:23.496Z,5.10
2018-09-03T04:36:50.869Z,5.10
2018-09-03T04:39:18.344Z,5.73
2018-09-03T04:41:45.872Z,5.57
2018-09-03T04:44:13.433Z,6.67
2018-09-03T04:46:40.806Z,5.73
2018-09-03T04:49:08.243Z,5.77
2018-09-03T04:51:35.629Z,5.90
2018-09-03T04:54:03.124Z,9.07
2018-09-03T04:56:30.528Z,7.93
2018-09-03T04:58:58.015Z,6.13
2018-09-03T05:01:25.465Z,7.90
2018-09-03T05:03:53.492Z,6.80
2018-09-03T05:06:20.862Z,7.37
2018-09-03T05:08:48.374Z,8.40
2018-09-03T05:11:15.768Z,8.77
2018-09-03T05:13:43.215Z,8.33
2018-09-03T05:16:10.748Z,7.83
2018-09-03T05:18:38.208Z,7.80
2018-09-03T05:21:05.693Z,7.53
2018-09-03T05:23:33.143Z,7.67
2018-09-03T05:26:00.569Z,7.10
2018-09-03T05:28:27.955Z,9.00
2018-09-03T05:30:55.518Z,9.17
2018-09-03T05:33:23.084Z,7.80
2018-09-03T05:35:50.605Z,7.23
2018-09-03T05:38:18.037Z,7.97
2018-09-03T05:40:45.560Z,7.13
2018-09-03T05:43:13.054Z,7.83
2018-09-03T05:45:40.505Z,6.83
2018-09-03T05:48:07.944Z,7.23
2018-09-03T05:50:35.487Z,6.47
2018-09-03T05:53:03.029Z,7.93
2018-09-03T05:55:30.560Z,7.33
2018-09-03T05:57:57.976Z,7.40
2018-09-03T06:00:25.536Z,7.03
2018-09-03T06:02:53.080Z,8.27
2018-09-03T06:05:20.500Z,7.37
2018-09-03T06:07:47.973Z,6.70
2018-09-03T06:10:15.440Z,7.50
2018-09-03T06:12:42.942Z,7.47
2018-09-03T06:15:10.399Z,8.50
2018-09-03T06:17:37.882Z,7.13
2018-09-03T06:20:05.393Z,8.20
2018-09-03T06:22:32.894Z,9.37
2018-09-03T06:25:00.330Z,8.57
2018-09-03T06:27:27.794Z,9.80
2018-09-03T06:29:55.298Z,8.63
2018-09-03T06:32:22.733Z,8.03
2018-09-03T06:34:50.293Z,7.87
2018-09-03T06:37:17.665Z,6.90
2018-09-03T06:39:45.132Z,8.47
2018-09-03T06:42:12.645Z,9.37
2018-09-03T06:44:40.235Z,8.10
2018-09-03T06:47:07.746Z,7.83
2018-09-03T06:49:35.304Z,8.90
2018-09-03T06:52:02.857Z,8.40
2018-09-03T06:54:30.364Z,8.00
2018-09-03T06:56:57.737Z,7.90
2018-09-03T06:59:25.146Z,9.80
2018-09-03T07:01:52.503Z,9.03
2018-09-03T07:04:19.890Z,8.03
2018-09-03T07:06:47.308Z,8.90
2018-09-03T07:09:14.614Z,9.50
2018-09-03T07:11:42.144Z,9.60
2018-09-03T07:14:09.564Z,8.77
2018-09-03T07:16:37.167Z,8.37
2018-09-03T07:19:04.818Z,9.30
2018-09-03T07:21:32.253Z,7.70
2018-09-03T07:23:59.766Z,8.63
2018-09-03T07:26:27.249Z,7.97
2018-09-03T07:28:54.837Z,8.13
2018-09-03T07:31:22.259Z,10.20
2018-09-03T07:33:49.724Z,9.30
2018-09-03T07:36:17.139Z,8.60
2018-09-03T07:38:44.597Z,8.40
2018-09-03T07:41:12.371Z,7.60
2018-09-03T07:43:39.827Z,8.40
2018-09-03T07:46:07.236Z,8.07
2018-09-03T07:48:34.737Z,7.23
2018-09-03T07:51:02.110Z,7.67
2018-09-03T07:53:29.605Z,9.43
2018-09-03T07:55:57.211Z,8.90
2018-09-03T07:58:24.792Z,10.00
2018-09-03T08:00:52.364Z,10.13
2018-09-03T08:03:19.790Z,8.60
2018-09-03T08:05:47.220Z,8.90
2018-09-03T08:08:14.802Z,9.40
2018-09-03T08:10:42.365Z,11.03
2018-09-03T08:13:14.032Z,8.47
2018-09-03T08:15:41.531Z,8.07
2018-09-03T08:18:09.102Z,7.80
2018-09-03T08:20:36.484Z,9.67
2018-09-03T08:23:03.948Z,9.00
2018-09-03T08:25:32.075Z,10.23
2018-09-03T08:27:59.463Z,8.53
2018-09-03T08:30:27.029Z,9.43
2018-09-03T08:32:55.807Z,9.20
2018-09-03T08:35:23.439Z,11.80
2018-09-03T08:37:50.900Z,11.33
2018-09-03T08:40:18.322Z,9.90
2018-09-03T08:42:45.822Z,13.40
2018-09-03T08:45:13.356Z,8.20
2018-09-03T08:47:40.841Z,8.87
2018-09-03T08:50:08.291Z,8.17
2018-09-03T08:52:35.804Z,7.67
2018-09-03T08:55:03.380Z,6.93
2018-09-03T08:57:30.902Z,7.47
2018-09-03T08:59:58.408Z,9.70
2018-09-03T09:02:26.002Z,8.37
2018-09-03T09:04:53.388Z,7.40
2018-09-03T09:07:20.846Z,7.47
2018-09-03T09:09:48.436Z,7.70
2018-09-03T09:12:16.035Z,8.20
2018-09-03T09:14:43.544Z,6.87
2018-09-03T09:17:10.989Z,6.73
2018-09-03T09:19:38.452Z,6.07
2018-09-03T09:22:05.899Z,7.77
2018-09-03T09:24:33.408Z,7.00
2018-09-03T09:27:00.897Z,7.47
2018-09-03T09:29:28.362Z,7.20
2018-09-03T09:31:55.930Z,5.93
2018-09-03T09:34:23.464Z,5.70
2018-09-03T09:36:51.112Z,5.70
2018-09-03T09:39:18.535Z,6.20
2018-09-03T09:41:46.075Z,7.40
2018-09-03T09:44:13.601Z,6.90
2018-09-03T09:46:41.092Z,6.80
2018-09-03T09:49:08.650Z,5.70
2018-09-03T09:51:36.056Z,7.73
2018-09-03T09:54:03.485Z,6.43
2018-09-03T09:56:30.852Z,7.73
2018-09-03T09:58:58.362Z,5.83
2018-09-03T10:01:36.932Z,7.33
2018-09-03T10:04:04.714Z,6.83
2018-09-03T10:06:32.137Z,6.53
2018-09-03T10:08:59.699Z,7.30
2018-09-03T10:11:27.613Z,7.50
2018-09-03T10:13:58.049Z,6.83
2018-09-03T10:16:25.611Z,8.27
2018-09-03T10:18:53.131Z,9.40
2018-09-03T10:21:20.640Z,8.40
2018-09-03T10:23:48.132Z,6.97
2018-09-03T10:26:15.693Z,7.00
2018-09-03T10:28:43.487Z,8.40
2018-09-03T10:31:10.970Z,7.60
2018-09-03T10:33:38.495Z,7.00
2018-09-03T10:36:06.028Z,7.00
2018-09-03T10:38:33.563Z,7.40
2018-09-03T10:41:01.151Z,7.23
2018-09-03T10:43:28.654Z,8.10
2018-09-03T10:45:56.137Z,9.17
2018-09-03T10:48:24.536Z,8.03
2018-09-03T10:50:52.134Z,7.13
2018-09-03T10:53:19.551Z,8.47
2018-09-03T10:55:47.056Z,7.27
2018-09-03T10:58:14.479Z,7.67
2018-09-03T11:00:42.042Z,8.00
2018-09-03T11:03:09.540Z,8.77
2018-09-03T11:05:37.001Z,7.77
2018-09-03T11:08:04.535Z,7.70
2018-09-03T11:10:32.044Z,8.07
2018-09-03T11:12:59.678Z,8.70
2018-09-03T11:15:27.226Z,7.73
2018-09-03T11:17:54.781Z,9.03
2018-09-03T11:20:26.636Z,9.87
2018-09-03T11:22:54.373Z,9.83
2018-09-03T11:25:22.583Z,9.33
2018-09-03T11:27:50.966Z,9.00
2018-09-03T11:30:18.843Z,7.80
2018-09-03T11:32:51.938Z,9.97
2018-09-03T11:35:20.054Z,9.80
2018-09-03T11:37:47.842Z,10.50
2018-09-03T11:40:15.578Z,10.53
2018-09-03T11:42:44.557Z,8.57
2018-09-03T11:45:12.176Z,9.97
2018-09-03T11:47:39.662Z,9.93
2018-09-03T11:50:07.517Z,10.17
2018-09-03T11:52:36.076Z,10.70
2018-09-03T11:55:03.624Z,9.83
2018-09-03T11:57:31.104Z,9.40
2018-09-03T11:59:58.666Z,8.97
2018-09-03T12:02:26.177Z,9.67
2018-09-03T12:04:56.067Z,9.97
2018-09-03T12:07:23.628Z,11.37
2018-09-03T12:09:51.098Z,10.30
2018-09-03T12:12:18.628Z,10.80
2018-09-03T12:14:48.406Z,10.30
2018-09-03T12:17:16.056Z,11.23
2018-09-03T12:19:43.496Z,11.07
2018-09-03T12:22:11.036Z,9.97
2018-09-03T12:24:38.514Z,11.20
2018-09-03T12:27:06.078Z,12.03
2018-09-03T12:29:33.877Z,9.47
2018-09-03T12:32:01.362Z,10.47
2018-09-03T12:34:28.829Z,10.30
2018-09-03T12:37:35.585Z,10.57
2018-09-03T12:40:03.169Z,11.87
2018-09-03T12:42:30.640Z,13.33
2018-09-03T12:44:58.204Z,11.33
2018-09-03T12:47:25.704Z,12.83
2018-09-03T12:49:53.242Z,12.63
2018-09-03T12:52:21.415Z,14.17
2018-09-03T12:54:48.997Z,11.80
2018-09-03T12:57:16.520Z,10.83
2018-09-03T12:59:43.914Z,12.37
2018-09-03T13:02:11.473Z,11.37
2018-09-03T13:04:38.883Z,12.63
2018-09-03T13:07:06.402Z,12.10
2018-09-03T13:09:33.861Z,11.90
2018-09-03T13:12:01.424Z,12.27
2018-09-03T13:14:28.993Z,11.90
2018-09-03T13:16:56.565Z,13.50
2018-09-03T13:19:24.028Z,42.83
2018-09-03T13:21:51.645Z,12.50
2018-09-03T13:24:19.132Z,12.73
2018-09-03T13:26:46.655Z,14.77
2018-09-03T13:29:14.251Z,12.50
2018-09-03T13:31:41.684Z,13.60
2018-09-03T13:34:09.259Z,13.33
2018-09-03T13:36:36.717Z,13.50
2018-09-03T13:39:07.041Z,13.17
2018-09-03T13:41:34.572Z,13.50
2018-09-03T13:44:02.099Z,13.83
2018-09-03T13:46:29.611Z,12.80
2018-09-03T13:48:57.060Z,11.70
2018-09-03T13:51:24.571Z,12.30
2018-09-03T13:53:53.501Z,13.90
2018-09-03T13:56:21.039Z,12.03
2018-09-03T13:58:48.929Z,13.80
2018-09-03T14:01:16.449Z,12.80
2018-09-03T14:03:43.904Z,12.97
2018-09-03T14:06:11.477Z,14.47
2018-09-03T14:08:39.026Z,12.07
2018-09-03T14:11:06.515Z,12.97
2018-09-03T14:13:34.019Z,13.37
2018-09-03T14:16:01.510Z,12.63
2018-09-03T14:18:29.018Z,12.37
2018-09-03T14:20:56.651Z,14.37
2018-09-03T14:23:24.377Z,12.50
2018-09-03T14:25:51.966Z,12.07
2018-09-03T14:28:19.521Z,12.37
2018-09-03T14:30:46.957Z,11.67
2018-09-03T14:33:14.495Z,12.60
2018-09-03T14:35:42.107Z,12.80
2018-09-03T14:38:09.574Z,11.93
2018-09-03T14:40:37.103Z,12.00
2018-09-03T14:43:04.704Z,11.83
2018-09-03T14:45:32.140Z,12.33
2018-09-03T14:47:59.681Z,13.17
2018-09-03T14:50:27.204Z,11.50
2018-09-03T14:52:54.747Z,11.90
2018-09-03T14:55:22.406Z,11.50
2018-09-03T14:57:49.949Z,11.77
2018-09-03T15:00:17.380Z,13.30
2018-09-03T15:02:44.896Z,12.10
2018-09-03T15:05:12.431Z,12.27
2018-09-03T15:07:39.896Z,13.00
2018-09-03T15:10:07.407Z,11.13
2018-09-03T15:12:34.949Z,12.53
2018-09-03T15:15:02.570Z,11.20
2018-09-03T15:17:30.132Z,11.83
2018-09-03T15:19:57.656Z,11.53
2018-09-03T15:22:25.173Z,12.10
2018-09-03T15:24:52.674Z,12.03
2018-09-03T15:27:20.157Z,12.73
2018-09-03T15:29:47.618Z,10.30
2018-09-03T15:32:15.161Z,11.00
2018-09-03T15:34:42.695Z,12.30
2018-09-03T15:37:10.350Z,11.07
2018-09-03T15:39:37.763Z,11.60
2018-09-03T15:42:05.329Z,10.83
2018-09-03T15:44:32.926Z,12.00
2018-09-03T15:47:00.309Z,12.87
2018-09-03T15:49:27.848Z,11.20
2018-09-03T15:51:55.404Z,10.90
2018-09-03T15:54:22.970Z,11.43
2018-09-03T15:56:50.511Z,11.80
2018-09-03T15:59:18.045Z,13.20
2018-09-03T16:01:45.443Z,13.37
2018-09-03T16:04:13.016Z,12.00
2018-09-03T16:06:40.496Z,11.30
2018-09-03T16:09:09.163Z,12.07
2018-09-03T16:11:36.983Z,11.33
2018-09-03T16:14:04.590Z,12.43
2018-09-03T16:16:32.065Z,11.50
2018-09-03T16:18:59.584Z,12.03
2018-09-03T16:21:27.082Z,11.57
2018-09-03T16:23:54.643Z,12.87
2018-09-03T16:26:22.231Z,11.90
2018-09-03T16:28:49.704Z,12.10
2018-09-03T16:31:17.156Z,11.50
2018-09-03T16:33:44.720Z,12.40
2018-09-03T16:36:12.240Z,11.67
2018-09-03T16:38:39.811Z,11.37
2018-09-03T16:41:07.259Z,13.07
2018-09-03T16:43:34.704Z,12.10
2018-09-03T16:46:02.218Z,11.57
2018-09-03T16:48:29.739Z,12.47
2018-09-03T16:50:57.343Z,11.70
2018-09-03T16:53:24.864Z,13.00
2018-09-03T16:55:52.445Z,12.47
2018-09-03T16:58:19.940Z,11.47
2018-09-03T17:00:47.515Z,12.17
2018-09-03T17:03:14.975Z,12.00
2018-09-03T17:05:42.547Z,14.30
2018-09-03T17:08:10.407Z,12.87
2018-09-03T17:10:37.752Z,13.17
2018-09-03T17:13:05.551Z,11.93
2018-09-03T17:15:33.100Z,11.97
2018-09-03T17:18:00.616Z,12.30
2018-09-03T17:20:28.143Z,12.77
2018-09-03T17:22:55.873Z,12.63
2018-09-03T17:25:23.327Z,12.30
2018-09-03T17:27:50.833Z,12.97
2018-09-03T17:30:18.604Z,13.83
2018-09-03T17:32:46.167Z,12.90
2018-09-03T17:35:13.684Z,13.93
2018-09-03T17:37:41.417Z,12.20
2018-09-03T17:40:08.991Z,11.60
2018-09-03T17:42:36.678Z,12.33
2018-09-03T17:45:04.228Z,13.03
2018-09-03T17:48:56.382Z,11.93
2018-09-03T17:51:23.837Z,13.43
2018-09-03T17:53:51.459Z,12.97
2018-09-03T17:56:19.003Z,14.67
2018-09-03T17:58:46.659Z,14.93
2018-09-03T18:01:14.157Z,12.87
2018-09-03T18:03:41.661Z,14.40
2018-09-03T18:06:09.331Z,14.30
2018-09-03T18:08:37.037Z,14.23
2018-09-03T18:11:04.793Z,13.50
2018-09-03T18:13:32.362Z,14.17
2018-09-03T18:15:59.932Z,14.50
2018-09-03T18:18:27.657Z,14.40
2018-09-03T18:20:55.277Z,13.10
2018-09-03T18:23:22.889Z,13.63
2018-09-03T18:25:50.434Z,16.20
2018-09-03T18:28:18.035Z,14.10
2018-09-03T18:30:45.719Z,15.20
2018-09-03T18:33:13.316Z,14.87
2018-09-03T18:35:41.011Z,15.20
2018-09-03T18:38:08.545Z,13.10
2018-09-03T18:40:36.143Z,15.53
2018-09-03T18:43:03.856Z,15.00
2018-09-03T18:45:31.549Z,14.23
2018-09-03T18:47:59.339Z,14.33
2018-09-03T18:50:27.063Z,13.30
2018-09-03T18:52:54.678Z,14.23
2018-09-03T18:55:22.781Z,13.03
2018-09-03T18:57:50.652Z,13.80
2018-09-03T19:00:18.704Z,12.97
2018-09-03T19:02:46.596Z,13.10
2018-09-03T19:05:14.308Z,11.90
2018-09-03T19:07:41.826Z,11.83
2018-09-03T19:10:09.669Z,11.23
2018-09-03T19:12:37.562Z,12.77
2018-09-03T19:15:05.969Z,12.10
2018-09-03T19:17:33.788Z,10.70
2018-09-03T19:20:01.476Z,12.33
2018-09-03T19:22:29.039Z,12.60
2018-09-03T19:24:56.919Z,10.30
2018-09-03T19:27:24.860Z,11.93
2018-09-03T19:29:52.482Z,10.70
2018-09-03T19:32:20.112Z,11.10
2018-09-03T19:34:47.647Z,12.00
2018-09-03T19:37:15.215Z,11.73
2018-09-03T19:39:42.628Z,11.40
2018-09-03T19:42:10.192Z,11.40
2018-09-03T19:44:37.811Z,10.27
2018-09-03T19:47:05.327Z,11.70
2018-09-03T19:49:32.894Z,11.33
2018-09-03T19:52:00.589Z,11.50
2018-09-03T19:54:28.072Z,10.23
2018-09-03T19:56:55.666Z,11.30
2018-09-03T19:59:23.192Z,11.23
2018-09-03T20:01:51.398Z,10.70
2018-09-03T20:04:18.936Z,10.90
2018-09-03T20:06:46.534Z,10.63
2018-09-03T20:09:14.137Z,11.33
2018-09-03T20:11:41.660Z,11.33
2018-09-03T20:14:09.249Z,10.90
2018-09-03T20:16:36.776Z,12.03
2018-09-03T20:19:04.293Z,11.00
2018-09-03T20:21:31.876Z,11.83
2018-09-03T20:23:59.457Z,11.80
2018-09-03T20:26:27.000Z,12.50
2018-09-03T20:28:54.492Z,11.20
2018-09-03T20:31:22.068Z,10.83
2018-09-03T20:33:49.574Z,11.13
2018-09-03T20:36:17.210Z,45.20
2018-09-03T20:38:44.623Z,18.53
2018-09-03T20:41:12.236Z,11.90
2018-09-03T20:43:39.914Z,14.33
2018-09-03T20:46:07.646Z,12.20
2018-09-03T20:48:35.237Z,12.30
2018-09-03T20:51:03.424Z,12.13
2018-09-03T20:53:31.032Z,11.03
2018-09-03T20:55:58.481Z,10.73
2018-09-03T20:58:26.127Z,13.50
2018-09-03T21:00:53.659Z,11.73
2018-09-03T21:03:21.196Z,11.00
2018-09-03T21:05:48.771Z,13.00
2018-09-03T21:08:16.506Z,11.33
2018-09-03T21:10:44.039Z,11.90
2018-09-03T21:13:11.566Z,12.97
2018-09-03T21:15:39.040Z,12.80
2018-09-03T21:18:06.561Z,12.20
2018-09-03T21:20:33.950Z,20.47
2018-09-03T21:23:01.465Z,15.47
2018-09-03T21:25:28.979Z,11.57
2018-09-03T21:27:56.510Z,12.53
2018-09-03T21:30:24.130Z,11.27
2018-09-03T21:32:51.639Z,11.97
2018-09-03T21:35:19.201Z,12.60
2018-09-03T21:37:46.736Z,14.47
2018-09-03T21:40:14.275Z,12.23
2018-09-03T21:42:41.749Z,15.47
2018-09-03T21:45:09.346Z,14.47
2018-09-03T21:47:36.922Z,13.50
2018-09-03T21:50:04.587Z,14.00
2018-09-03T21:52:32.109Z,13.57
2018-09-03T21:54:59.615Z,12.43
2018-09-03T21:57:27.104Z,13.30
2018-09-03T21:59:54.637Z,12.43
2018-09-03T22:02:22.237Z,11.20
2018-09-03T22:04:49.684Z,13.07
2018-09-03T22:07:17.238Z,13.00
2018-09-03T22:09:44.824Z,25.70
2018-09-03T22:12:12.305Z,14.70
2018-09-03T22:14:39.740Z,14.00
2018-09-03T22:17:07.639Z,14.00
2018-09-03T22:19:35.154Z,13.00
2018-09-03T22:22:02.667Z,12.10
2018-09-03T22:24:30.208Z,14.80
2018-09-03T22:26:57.736Z,14.10
2018-09-03T22:29:25.412Z,13.47
2018-09-03T22:31:52.924Z,13.03
2018-09-03T22:34:20.393Z,13.43
2018-09-03T22:36:47.824Z,13.70
2018-09-03T22:39:15.377Z,12.77
2018-09-03T22:41:42.892Z,13.50
2018-09-03T22:44:10.429Z,12.50
2018-09-03T22:46:37.919Z,12.97
2018-09-03T22:49:05.447Z,12.50
2018-09-03T22:51:32.868Z,13.07
2018-09-03T22:54:00.279Z,13.97
2018-09-03T22:56:27.776Z,13.63
2018-09-03T22:58:55.204Z,14.03
2018-09-03T23:01:22.715Z,12.97
2018-09-03T23:03:50.088Z,14.60
2018-09-03T23:06:17.557Z,14.77
2018-09-03T23:08:45.099Z,12.90
2018-09-03T23:11:12.561Z,13.43
2018-09-03T23:13:40.073Z,14.10
2018-09-03T23:16:08.100Z,13.73
2018-09-03T23:18:35.576Z,14.63
2018-09-03T23:21:03.133Z,14.03
2018-09-03T23:23:30.631Z,13.30
2018-09-03T23:25:58.062Z,15.30
2018-09-03T23:28:25.512Z,14.10
2018-09-03T23:30:52.878Z,14.60
2018-09-03T23:33:20.238Z,13.13
2018-09-03T23:35:47.716Z,14.80
2018-09-03T23:38:15.139Z,14.50
2018-09-03T23:40:42.558Z,14.07
2018-09-03T23:43:09.935Z,13.80
2018-09-03T23:45:37.440Z,13.97
2018-09-03T23:48:05.425Z,14.40
2018-09-03T23:50:32.851Z,14.97
2018-09-03T23:53:00.386Z,14.53
2018-09-03T23:55:27.925Z,14.47
2018-09-03T23:57:55.487Z,15.23
